Time;durP1;ratioP1;P1;durP2;ratioP2;P2;SDS_P1;SDS_P2;PMS_P1;PMS_P2;Temp;Humidity;BMP_temperature;BMP_pressure;BME280_temperature;BME280_humidity;BME280_pressure;Samples;Min_cycle;Max_cycle;Signal;HPM_P1;HPM_P2
2021/10/10 04:02:16;;;;;;;15.90;10.82;;;4.60;99.90;;;;;;5104422;23;20333;-68
2021/10/10 04:04:42;;;;;;;12.85;11.30;;;4.60;99.90;;;;;;4917125;29;20266;-68
2021/10/10 04:07:09;;;;;;;13.82;11.93;;;4.50;99.90;;;;;;4916488;29;20230;-68
2021/10/10 04:09:36;;;;;;;14.75;13.15;;;4.50;99.90;;;;;;4907121;29;20211;-68
2021/10/10 04:12:02;;;;;;;19.45;16.30;;;4.50;99.90;;;;;;4898640;29;20294;-68
2021/10/10 04:14:29;;;;;;;31.85;19.05;;;4.40;99.90;;;;;;4898691;29;20270;-68
2021/10/10 04:16:56;;;;;;;32.65;20.20;;;4.40;99.90;;;;;;4898567;29;20207;-68
2021/10/10 04:19:24;;;;;;;30.45;18.25;;;4.40;99.90;;;;;;4899102;29;20215;-68
2021/10/10 04:21:50;;;;;;;27.10;16.52;;;4.40;99.90;;;;;;4897777;29;20237;-68
2021/10/10 04:24:17;;;;;;;15.43;11.85;;;4.30;99.90;;;;;;4898843;29;20701;-68
2021/10/10 04:26:44;;;;;;;16.45;11.30;;;4.30;99.90;;;;;;4898361;29;20679;-68
2021/10/10 04:29:10;;;;;;;17.05;11.98;;;4.30;99.90;;;;;;4898279;29;20215;-68
2021/10/10 04:31:37;;;;;;;15.15;10.55;;;4.30;99.90;;;;;;4898186;29;20314;-68
2021/10/10 04:34:04;;;;;;;12.40;10.40;;;4.30;99.90;;;;;;4898449;29;20212;-68
2021/10/10 04:36:32;;;;;;;12.70;11.30;;;4.20;99.90;;;;;;4897756;29;20254;-66
2021/10/10 04:38:58;;;;;;;15.43;11.35;;;4.30;99.90;;;;;;4898633;29;20257;-66
2021/10/10 04:41:25;;;;;;;13.38;10.85;;;4.20;99.90;;;;;;4897824;29;20227;-66
2021/10/10 04:43:51;;;;;;;18.67;10.95;;;4.20;99.90;;;;;;4898111;29;20263;-67
2021/10/10 04:46:18;;;;;;;14.88;11.20;;;4.20;99.90;;;;;;4897848;29;20982;-66
2021/10/10 04:48:45;;;;;;;16.08;11.68;;;4.20;99.90;;;;;;4898320;29;20247;-65
2021/10/10 04:51:11;;;;;;;13.98;11.50;;;4.20;99.90;;;;;;4897580;29;20287;-68
2021/10/10 04:53:39;;;;;;;16.25;11.02;;;4.10;99.90;;;;;;4897425;29;20632;-70
2021/10/10 04:56:06;;;;;;;15.88;11.30;;;4.10;99.90;;;;;;4898042;29;20279;-70
2021/10/10 04:58:33;;;;;;;15.70;11.20;;;4.10;99.90;;;;;;4897969;29;20346;-68
2021/10/10 05:00:59;;;;;;;14.07;12.63;;;4.10;99.90;;;;;;4897573;29;20302;-70
2021/10/10 05:03:26;;;;;;;14.07;11.27;;;4.10;99.90;;;;;;4897731;29;20275;-71
2021/10/10 05:05:53;;;;;;;12.88;11.13;;;4.00;99.90;;;;;;4897477;29;20227;-70
2021/10/10 05:08:19;;;;;;;12.70;10.90;;;4.00;99.90;;;;;;4897218;29;20275;-70
2021/10/10 05:10:47;;;;;;;14.02;11.10;;;4.00;99.90;;;;;;4897601;29;20715;-68
2021/10/10 05:13:14;;;;;;;12.07;10.38;;;4.00;99.90;;;;;;4897313;29;20275;-68
2021/10/10 05:15:41;;;;;;;11.65;9.85;;;3.90;99.90;;;;;;4897703;29;20577;-67
2021/10/10 05:18:07;;;;;;;12.43;9.80;;;3.90;99.90;;;;;;4897779;29;20279;-68
2021/10/10 05:20:34;;;;;;;16.20;10.40;;;3.90;99.90;;;;;;4897119;29;20231;-68
2021/10/10 05:23:01;;;;;;;13.25;10.77;;;3.90;99.90;;;;;;4896892;29;20590;-69
2021/10/10 05:25:27;;;;;;;10.63;8.95;;;3.90;99.90;;;;;;4897605;29;20592;-68
2021/10/10 05:27:56;;;;;;;13.35;9.90;;;3.90;99.90;;;;;;4897334;29;20283;-68
2021/10/10 05:30:23;;;;;;;11.52;10.00;;;3.80;99.90;;;;;;4897253;29;20712;-68
2021/10/10 05:32:49;;;;;;;12.68;9.10;;;3.80;99.90;;;;;;4897375;29;20528;-67
2021/10/10 05:35:16;;;;;;;11.93;9.80;;;3.80;99.90;;;;;;4897233;29;20287;-67
2021/10/10 05:37:42;;;;;;;12.90;11.57;;;3.80;99.90;;;;;;4896822;29;20214;-67
2021/10/10 05:40:10;;;;;;;11.73;9.32;;;3.80;99.90;;;;;;4897244;29;20263;-67
2021/10/10 05:42:38;;;;;;;13.40;10.90;;;3.80;99.90;;;;;;4896816;29;20321;-67
2021/10/10 05:45:07;;;;;;;11.40;9.77;;;3.80;99.90;;;;;;4897199;29;20208;-67
2021/10/10 05:47:33;;;;;;;11.32;9.70;;;3.80;99.90;;;;;;4897239;29;20223;-67
2021/10/10 05:50:00;;;;;;;11.90;10.02;;;3.80;99.90;;;;;;4896853;29;20635;-67
2021/10/10 05:52:27;;;;;;;11.98;10.63;;;3.80;99.90;;;;;;4896423;29;20231;-67
2021/10/10 05:54:54;;;;;;;11.25;8.90;;;3.80;99.90;;;;;;4896997;29;20219;-67
2021/10/10 05:57:24;;;;;;;12.82;10.10;;;3.80;99.90;;;;;;4897213;29;20211;-67
2021/10/10 05:59:55;;;;;;;12.88;10.38;;;3.80;99.90;;;;;;4897115;29;20215;-69
2021/10/10 06:02:23;;;;;;;14.45;10.65;;;3.80;99.90;;;;;;4896742;29;20243;-69
2021/10/10 06:04:49;;;;;;;13.93;10.82;;;3.80;99.90;;;;;;4896496;29;20607;-69
2021/10/10 06:07:16;;;;;;;13.82;11.40;;;3.90;99.90;;;;;;4896415;29;20279;-69
2021/10/10 06:09:42;;;;;;;12.93;11.45;;;3.90;99.90;;;;;;4897221;29;20267;-69
2021/10/10 06:12:10;;;;;;;12.52;11.02;;;3.90;99.90;;;;;;4896929;29;20572;-69
2021/10/10 06:14:36;;;;;;;13.30;10.07;;;3.90;99.90;;;;;;4896949;29;20219;-69
2021/10/10 06:17:03;;;;;;;14.07;11.48;;;3.90;99.90;;;;;;4896829;29;20207;-69
2021/10/10 06:19:32;;;;;;;14.38;11.75;;;4.00;99.90;;;;;;4896734;29;20655;-69
2021/10/10 06:21:58;;;;;;;16.30;12.63;;;4.00;99.90;;;;;;4896288;29;20253;-69
2021/10/10 06:24:25;;;;;;;16.70;12.45;;;4.10;99.90;;;;;;4896894;29;20544;-69
2021/10/10 06:26:52;;;;;;;17.50;13.65;;;4.10;99.90;;;;;;4896995;29;20231;-69
2021/10/10 06:29:18;;;;;;;15.25;12.77;;;4.20;99.90;;;;;;4897890;29;20215;-67
2021/10/10 06:31:45;;;;;;;15.90;14.00;;;4.20;99.90;;;;;;4900483;29;20708;-67
2021/10/10 06:34:12;;;;;;;19.77;14.23;;;4.30;99.90;;;;;;4900397;29;20299;-67
2021/10/10 06:36:40;;;;;;;16.23;14.23;;;4.40;99.90;;;;;;4899558;29;20274;-67
2021/10/10 06:39:06;;;;;;;23.77;14.55;;;4.50;99.90;;;;;;4901427;29;20212;-67
2021/10/10 06:41:33;;;;;;;20.85;15.05;;;4.50;99.90;;;;;;4900639;29;20231;-67
2021/10/10 06:44:00;;;;;;;19.83;13.15;;;4.60;99.90;;;;;;4900514;29;20728;-67
2021/10/10 06:46:26;;;;;;;14.25;12.75;;;4.60;99.90;;;;;;4900455;29;20322;-67
2021/10/10 06:48:53;;;;;;;17.50;14.30;;;4.70;99.90;;;;;;4900657;29;20211;-67
2021/10/10 06:51:20;;;;;;;22.75;14.32;;;4.70;99.90;;;;;;4899346;29;20287;-67
2021/10/10 06:53:47;;;;;;;17.02;13.02;;;4.80;99.90;;;;;;4900561;29;20291;-67
2021/10/10 06:56:14;;;;;;;15.68;13.55;;;4.90;99.90;;;;;;4900540;29;20620;-69
2021/10/10 06:58:41;;;;;;;21.92;13.35;;;4.90;99.90;;;;;;4900428;29;20707;-69
2021/10/10 07:01:12;;;;;;;18.55;12.77;;;5.00;99.90;;;;;;4900207;29;20295;-69
2021/10/10 07:03:39;;;;;;;16.52;13.75;;;5.10;99.90;;;;;;4899792;29;20270;-69
2021/10/10 07:06:06;;;;;;;18.92;14.50;;;5.20;99.90;;;;;;4900016;29;20272;-69
2021/10/10 07:08:32;;;;;;;16.42;13.25;;;5.20;99.90;;;;;;4899886;29;20235;-69
2021/10/10 07:11:00;;;;;;;18.15;13.40;;;5.30;99.90;;;;;;4899823;29;20239;-69
2021/10/10 07:13:27;;;;;;;16.67;11.85;;;5.40;99.90;;;;;;4899781;29;20279;-69
2021/10/10 07:15:55;;;;;;;16.83;13.38;;;5.50;99.90;;;;;;4899744;29;20267;-69
2021/10/10 07:18:25;;;;;;;24.95;20.17;;;5.50;99.90;;;;;;4899550;29;20557;-69
2021/10/10 07:21:02;;;;;;;17.38;14.38;;;5.60;99.90;;;;;;4899238;29;20239;-67
2021/10/10 07:23:32;;;;;;;22.45;14.00;;;5.70;99.90;;;;;;4899170;29;20215;-69
2021/10/10 07:26:01;;;;;;;16.80;13.50;;;5.90;99.90;;;;;;4900158;29;20287;-69
2021/10/10 07:28:28;;;;;;;16.90;12.70;;;5.90;99.90;;;;;;4899284;29;20238;-72
2021/10/10 07:30:54;;;;;;;16.23;12.68;;;6.00;99.90;;;;;;4899657;29;20649;-72
2021/10/10 07:33:21;;;;;;;15.35;13.18;;;6.10;99.90;;;;;;4899296;29;20623;-72
2021/10/10 07:35:48;;;;;;;18.00;16.08;;;6.20;99.90;;;;;;4899220;29;20259;-72
2021/10/10 07:38:14;;;;;;;18.23;14.73;;;6.30;99.90;;;;;;4898992;29;20218;-73
2021/10/10 07:40:41;;;;;;;19.10;15.75;;;6.30;99.90;;;;;;4898167;29;20231;-73
2021/10/10 07:43:09;;;;;;;15.52;12.70;;;6.40;99.90;;;;;;4898893;29;20289;-73
2021/10/10 07:45:41;;;;;;;16.70;13.18;;;6.50;99.90;;;;;;4899493;29;20238;-73
2021/10/10 07:48:08;;;;;;;16.05;13.20;;;6.60;99.90;;;;;;4898951;29;20235;-73
2021/10/10 07:50:35;;;;;;;15.10;12.73;;;6.70;99.90;;;;;;4898755;29;20652;-73
2021/10/10 07:53:03;;;;;;;15.57;12.25;;;6.80;99.90;;;;;;4898729;29;20218;-73
2021/10/10 07:55:30;;;;;;;17.88;14.00;;;6.90;99.90;;;;;;4899001;29;20275;-73
2021/10/10 07:57:56;;;;;;;12.95;11.68;;;7.00;99.90;;;;;;4898834;29;20692;-73
2021/10/10 08:00:25;;;;;;;13.38;11.82;;;7.00;99.90;;;;;;4898872;29;20215;-73
2021/10/10 08:02:53;;;;;;;12.80;11.40;;;7.10;99.90;;;;;;4899024;29;20267;-69
2021/10/10 08:05:21;;;;;;;16.90;12.40;;;7.20;99.90;;;;;;4898551;29;20742;-69
2021/10/10 08:07:47;;;;;;;15.95;11.80;;;7.20;99.90;;;;;;4898662;29;20604;-72
2021/10/10 08:10:14;;;;;;;14.07;12.43;;;7.30;99.90;;;;;;4898654;29;20214;-72
2021/10/10 08:12:41;;;;;;;12.95;11.32;;;7.40;99.90;;;;;;4898626;29;20223;-72
2021/10/10 08:15:09;;;;;;;14.80;12.25;;;7.40;99.90;;;;;;4898904;29;20266;-72
2021/10/10 08:17:37;;;;;;;16.17;12.10;;;7.50;99.90;;;;;;4898758;29;20754;-72
2021/10/10 08:20:05;;;;;;;17.67;13.23;;;7.60;99.90;;;;;;4898473;29;20216;-72
2021/10/10 08:22:34;;;;;;;14.93;12.75;;;7.70;99.90;;;;;;4898097;29;20234;-72
2021/10/10 08:25:01;;;;;;;17.02;12.25;;;7.80;99.90;;;;;;4898494;29;20574;-72
2021/10/10 08:27:28;;;;;;;12.95;11.10;;;8.00;99.90;;;;;;4898701;29;20231;-72
2021/10/10 08:29:54;;;;;;;12.43;10.93;;;8.00;99.90;;;;;;4898557;29;20215;-72
2021/10/10 08:32:21;;;;;;;15.80;12.38;;;8.10;99.90;;;;;;4898286;29;20227;-72
2021/10/10 08:34:49;;;;;;;11.32;7.97;;;8.20;99.90;;;;;;4898087;29;20286;-72
2021/10/10 08:37:16;;;;;;;15.52;12.82;;;8.30;99.90;;;;;;4897873;29;20657;-72
2021/10/10 08:39:43;;;;;;;15.93;13.07;;;8.40;99.90;;;;;;4898561;29;20220;-71
2021/10/10 08:42:12;;;;;;;16.40;12.55;;;8.40;99.90;;;;;;4898371;29;20248;-71
2021/10/10 08:44:43;;;;;;;17.25;13.82;;;8.50;99.90;;;;;;4898706;29;20211;-71
2021/10/10 08:47:15;;;;;;;14.30;12.18;;;8.50;99.90;;;;;;4898338;29;20238;-72
2021/10/10 08:49:44;;;;;;;13.38;11.98;;;8.60;99.90;;;;;;4898258;29;20550;-72
2021/10/10 08:52:14;;;;;;;13.40;11.52;;;8.70;99.90;;;;;;4897573;29;20271;-71
2021/10/10 08:54:41;;;;;;;14.45;12.55;;;8.70;99.90;;;;;;4899013;29;20218;-72
2021/10/10 08:57:09;;;;;;;14.75;12.18;;;8.70;99.90;;;;;;4905082;29;20207;-72
2021/10/10 08:59:38;;;;;;;13.48;11.68;;;8.80;99.90;;;;;;4903136;29;20350;-72
2021/10/10 09:02:08;;;;;;;19.98;17.85;;;8.90;99.90;;;;;;4901033;29;20255;-72
2021/10/10 09:04:39;;;;;;;15.73;13.05;;;9.00;99.90;;;;;;4900515;29;20699;-71
2021/10/10 09:07:05;;;;;;;14.38;11.65;;;9.00;99.90;;;;;;4900566;29;20760;-72
2021/10/10 09:09:36;;;;;;;15.52;11.95;;;9.10;99.90;;;;;;4900717;29;20263;-71
2021/10/10 09:12:05;;;;;;;13.48;11.90;;;9.20;99.90;;;;;;4898695;29;20265;-69
2021/10/10 09:14:43;;;;;;;12.93;11.05;;;9.20;99.90;;;;;;4898728;29;20255;-71
2021/10/10 09:17:11;;;;;;;15.00;11.60;;;9.30;99.90;;;;;;4899011;29;20259;-71
2021/10/10 09:19:38;;;;;;;15.52;12.77;;;9.40;99.90;;;;;;4898228;29;20215;-70
2021/10/10 09:22:07;;;;;;;22.00;18.45;;;9.40;99.90;;;;;;4897851;29;20307;-70
2021/10/10 09:24:35;;;;;;;15.23;13.63;;;9.40;99.90;;;;;;4897819;29;20211;-70
2021/10/10 09:27:05;;;;;;;14.75;13.00;;;9.40;99.90;;;;;;4897561;29;20282;-71
2021/10/10 09:29:33;;;;;;;12.98;11.52;;;9.40;99.90;;;;;;4897524;29;20294;-71
2021/10/10 09:32:13;;;;;;;15.88;12.65;;;9.60;99.90;;;;;;4897690;29;20242;-70
2021/10/10 09:34:42;;;;;;;14.65;12.75;;;9.70;99.90;;;;;;4897345;29;20528;-71
2021/10/10 09:37:16;;;;;;;18.30;16.35;;;9.80;99.90;;;;;;4897296;29;20238;-72
2021/10/10 09:39:47;;;;;;;13.25;11.95;;;9.80;99.90;;;;;;4897342;29;20265;-71
2021/10/10 09:42:31;;;;;;;14.60;13.10;;;9.90;99.90;;;;;;4897290;29;20249;-71
2021/10/10 09:45:13;;;;;;;21.92;19.70;;;10.00;99.90;;;;;;4897480;29;20676;-71
2021/10/10 09:47:49;;;;;;;15.60;10.95;;;10.10;99.90;;;;;;4896989;29;20290;-71
2021/10/10 09:50:16;;;;;;;12.63;11.43;;;10.30;99.90;;;;;;4896912;29;20210;-71
2021/10/10 09:52:43;;;;;;;12.60;11.30;;;10.40;99.90;;;;;;4897271;29;20859;-71
2021/10/10 09:55:12;;;;;;;14.18;12.68;;;10.50;99.90;;;;;;4897888;29;20229;-71
2021/10/10 09:57:46;;;;;;;12.60;10.30;;;10.60;99.90;;;;;;4897535;29;20628;-72
2021/10/10 10:00:19;;;;;;;11.38;10.27;;;10.60;99.90;;;;;;4897229;29;20238;-71
2021/10/10 10:02:48;;;;;;;12.18;10.95;;;10.80;99.90;;;;;;4897039;29;20247;-71
2021/10/10 10:05:24;;;;;;;12.13;10.90;;;10.90;99.90;;;;;;4895938;29;20211;-71
2021/10/10 10:07:52;;;;;;;10.40;9.32;;;10.90;99.90;;;;;;4896678;29;20242;-72
2021/10/10 10:10:20;;;;;;;12.30;10.13;;;10.90;99.90;;;;;;4896732;29;20231;-72
2021/10/10 10:12:48;;;;;;;18.38;12.18;;;11.00;99.90;;;;;;4896698;29;20224;-71
2021/10/10 10:15:15;;;;;;;13.00;11.70;;;11.00;99.90;;;;;;4896610;29;20215;-71
2021/10/10 10:17:42;;;;;;;12.13;10.88;;;11.00;99.90;;;;;;4896786;29;20547;-71
2021/10/10 10:20:12;;;;;;;9.60;8.70;;;11.00;99.90;;;;;;4896588;29;20559;-71
2021/10/10 10:22:38;;;;;;;12.77;11.57;;;11.10;99.90;;;;;;4896481;29;20554;-71
2021/10/10 10:25:07;;;;;;;12.80;11.60;;;11.30;99.90;;;;;;4896951;29;20218;-71
2021/10/10 10:27:35;;;;;;;13.20;12.00;;;11.30;99.90;;;;;;4896951;29;20227;-71
2021/10/10 10:30:05;;;;;;;16.40;14.43;;;11.30;99.90;;;;;;4896521;29;20215;-71
2021/10/10 10:32:34;;;;;;;17.20;11.77;;;11.40;99.90;;;;;;4896507;29;20235;-71
2021/10/10 10:35:03;;;;;;;11.98;10.80;;;11.60;99.90;;;;;;4896479;29;20310;-72
2021/10/10 10:37:56;;;;;;;12.13;9.98;;;11.80;99.90;;;;;;4896416;29;20267;-72
2021/10/10 10:40:34;;;;;;;11.32;10.27;;;11.90;99.90;;;;;;4896442;29;20262;-71
2021/10/10 10:43:04;;;;;;;10.85;9.80;;;12.00;99.90;;;;;;4896833;29;20626;-71
2021/10/10 10:45:33;;;;;;;10.52;9.45;;;12.10;99.90;;;;;;4897085;29;20261;-68
2021/10/10 10:48:01;;;;;;;11.43;10.07;;;12.30;99.90;;;;;;4896614;29;20718;-70
2021/10/10 10:50:29;;;;;;;12.52;10.18;;;12.30;99.90;;;;;;4896347;29;20235;-69
2021/10/10 10:53:01;;;;;;;10.35;9.40;;;12.30;99.90;;;;;;4896108;29;20314;-68
2021/10/10 10:55:30;;;;;;;13.10;9.50;;;12.40;99.90;;;;;;4896693;29;20230;-67
2021/10/10 10:57:59;;;;;;;9.87;8.90;;;12.50;99.90;;;;;;4896730;29;20298;-69
2021/10/10 11:00:30;;;;;;;9.65;8.73;;;12.60;99.90;;;;;;4896304;29;20940;-67
2021/10/10 11:03:14;;;;;;;10.77;9.40;;;12.70;99.90;;;;;;4896425;29;20294;-68
2021/10/10 11:05:46;;;;;;;10.20;9.10;;;12.80;99.90;;;;;;4896334;29;20463;-67
2021/10/10 11:08:38;;;;;;;10.57;9.20;;;12.90;99.90;;;;;;4896300;29;20294;-68
2021/10/10 11:11:16;;;;;;;11.50;9.30;;;13.00;99.90;;;;;;4896532;29;20558;-67
2021/10/10 11:13:45;;;;;;;12.63;8.83;;;13.00;99.90;;;;;;4896281;29;20561;-68
2021/10/10 11:16:15;;;;;;;9.93;8.47;;;13.10;99.90;;;;;;4898809;29;20523;-68
2021/10/10 11:18:44;;;;;;;17.43;12.80;;;13.10;99.90;;;;;;4900163;29;20808;-68
2021/10/10 11:21:12;;;;;;;16.33;8.90;;;13.00;99.90;;;;;;4899635;29;20900;-68
2021/10/10 11:23:39;;;;;;;14.30;7.50;;;13.00;99.90;;;;;;4898861;29;20498;-68
2021/10/10 11:26:07;;;;;;;9.27;8.40;;;13.00;99.90;;;;;;4899417;29;20495;-68
2021/10/10 11:28:36;;;;;;;13.17;11.90;;;12.90;99.90;;;;;;4899400;29;20483;-68
2021/10/10 11:31:08;;;;;;;10.07;9.13;;;13.00;99.90;;;;;;4899683;29;20610;-69
2021/10/10 11:33:37;;;;;;;11.53;10.47;;;13.00;99.90;;;;;;4899303;29;20471;-68
2021/10/10 11:36:04;;;;;;;9.50;8.70;;;13.00;99.90;;;;;;4899262;29;20467;-69
2021/10/10 11:38:46;;;;;;;9.90;9.00;;;13.00;99.90;;;;;;4898796;29;20967;-69
2021/10/10 11:41:13;;;;;;;10.93;9.53;;;13.00;99.90;;;;;;4899183;29;21016;-68
2021/10/10 11:43:40;;;;;;;11.80;9.67;;;13.00;99.90;;;;;;4899211;29;21020;-68
2021/10/10 11:46:06;;;;;;;9.10;8.30;;;13.00;99.90;;;;;;4899216;29;20555;-68
2021/10/10 11:48:36;;;;;;;10.93;9.83;;;13.00;99.90;;;;;;4898837;29;20544;-68
2021/10/10 11:51:04;;;;;;;10.60;9.60;;;13.00;99.90;;;;;;4898639;29;20995;-68
2021/10/10 11:53:41;;;;;;;11.90;9.37;;;13.00;99.90;;;;;;4898443;29;20476;-68
2021/10/10 11:56:08;;;;;;;9.83;8.80;;;13.10;99.90;;;;;;4898997;29;20471;-68
2021/10/10 11:58:35;;;;;;;9.87;8.97;;;13.20;99.90;;;;;;4898849;29;20470;-68
2021/10/10 12:01:09;;;;;;;10.23;9.43;;;13.30;99.90;;;;;;4898825;29;20505;-69
2021/10/10 12:03:42;;;;;;;12.87;11.67;;;13.40;99.90;;;;;;4898747;29;20211;-68
2021/10/10 12:06:17;;;;;;;10.17;9.20;;;13.40;99.90;;;;;;4898929;29;20803;-68
2021/10/10 12:08:44;;;;;;;13.23;11.83;;;13.50;99.90;;;;;;4899027;29;20501;-67
2021/10/10 12:11:11;;;;;;;12.57;11.43;;;13.50;99.90;;;;;;4899074;29;20496;-69
2021/10/10 12:13:51;;;;;;;13.80;12.10;;;13.60;99.90;;;;;;4898481;29;21021;-67
2021/10/10 12:16:18;;;;;;;12.57;11.40;;;13.60;99.90;;;;;;4898702;29;20475;-67
2021/10/10 12:18:46;;;;;;;13.00;11.60;;;13.40;99.90;;;;;;4898813;29;20459;-68
2021/10/10 12:21:21;;;;;;;14.37;13.10;;;13.40;99.90;;;;;;4898380;29;20547;-68
2021/10/10 12:24:01;;;;;;;18.10;13.77;;;13.50;99.90;;;;;;4898801;29;20471;-68
2021/10/10 12:26:29;;;;;;;11.50;10.10;;;13.50;99.90;;;;;;4898260;29;20523;-68
2021/10/10 12:28:56;;;;;;;11.83;10.60;;;13.50;99.90;;;;;;4898723;29;20499;-68
2021/10/10 12:31:23;;;;;;;18.17;16.27;;;13.40;99.90;;;;;;4898538;29;20491;-68
2021/10/10 12:34:09;;;;;;;17.20;14.20;;;13.50;99.90;;;;;;4899035;29;20559;-67
2021/10/10 12:36:44;;;;;;;14.03;12.57;;;13.40;99.90;;;;;;4897807;29;20470;-68
2021/10/10 12:39:11;;;;;;;24.77;21.10;;;13.50;99.90;;;;;;4896459;29;20940;-68
2021/10/10 12:41:37;;;;;;;15.07;12.70;;;13.60;99.90;;;;;;4898324;29;20499;-68
2021/10/10 12:44:16;;;;;;;17.20;15.40;;;13.60;99.90;;;;;;4898384;29;20885;-67
2021/10/10 12:46:49;;;;;;;18.07;16.17;;;13.60;99.90;;;;;;4897770;29;20806;-67
2021/10/10 12:49:27;;;;;;;14.23;12.93;;;13.60;99.90;;;;;;4898056;29;20487;-69
2021/10/10 12:51:54;;;;;;;14.10;12.70;;;13.60;99.90;;;;;;4897394;29;20602;-72
2021/10/10 12:54:23;;;;;;;31.13;21.87;;;13.70;99.90;;;;;;4898150;29;20549;-67
2021/10/10 12:57:01;;;;;;;13.60;11.47;;;13.70;99.90;;;;;;4897575;29;20498;-69
2021/10/10 12:59:28;;;;;;;12.63;11.30;;;13.70;99.90;;;;;;4898099;29;20550;-69
2021/10/10 13:01:55;;;;;;;14.70;13.00;;;13.80;99.90;;;;;;4897482;29;20934;-67
2021/10/10 13:04:24;;;;;;;19.60;16.90;;;13.90;99.90;;;;;;4898099;29;20550;-67
2021/10/10 13:06:51;;;;;;;11.47;10.30;;;13.80;99.90;;;;;;4897011;29;20504;-68
2021/10/10 13:09:20;;;;;;;14.80;11.17;;;13.80;99.90;;;;;;4897674;29;20539;-69
2021/10/10 13:11:47;;;;;;;12.27;11.23;;;13.90;99.90;;;;;;4897520;29;20983;-69
2021/10/10 13:14:16;;;;;;;16.73;14.43;;;13.80;99.90;;;;;;4897473;29;20579;-67
2021/10/10 13:16:43;;;;;;;15.70;14.10;;;13.80;99.90;;;;;;4897076;29;20565;-68
2021/10/10 13:19:09;;;;;;;16.43;14.80;;;13.80;99.90;;;;;;4897385;29;20936;-72
2021/10/10 13:21:40;;;;;;;14.33;12.83;;;13.70;99.90;;;;;;4896686;29;20851;-71
2021/10/10 13:24:07;;;;;;;13.93;12.50;;;13.70;99.90;;;;;;4897832;29;20475;-70
2021/10/10 13:26:34;;;;;;;13.37;11.87;;;13.70;99.90;;;;;;4897866;29;20471;-72
2021/10/10 13:29:01;;;;;;;11.57;10.47;;;13.80;99.90;;;;;;4897303;29;20483;-68
2021/10/10 13:31:28;;;;;;;9.87;8.97;;;13.80;99.90;;;;;;4897811;29;20487;-67
2021/10/10 13:33:55;;;;;;;15.77;14.10;;;13.90;99.90;;;;;;4897402;29;20869;-68
2021/10/10 13:36:21;;;;;;;10.87;9.87;;;13.90;99.90;;;;;;4896406;29;20518;-69
2021/10/10 13:38:49;;;;;;;11.00;10.07;;;13.90;99.90;;;;;;4897251;29;20468;-69
2021/10/10 13:41:16;;;;;;;9.73;8.83;;;13.90;99.90;;;;;;4897028;29;20494;-68
2021/10/10 13:43:43;;;;;;;13.13;11.83;;;13.90;99.90;;;;;;4897271;29;20539;-69
2021/10/10 13:46:11;;;;;;;10.90;9.57;;;13.90;99.90;;;;;;4897280;29;20838;-68
2021/10/10 13:48:38;;;;;;;9.67;8.87;;;13.90;99.90;;;;;;4897147;29;20492;-68
2021/10/10 13:51:07;;;;;;;14.40;11.70;;;13.90;99.90;;;;;;4896675;29;20630;-68
2021/10/10 13:53:34;;;;;;;22.00;14.97;;;13.90;99.90;;;;;;4896399;29;20487;-68
2021/10/10 13:56:03;;;;;;;36.73;25.50;;;13.90;99.90;;;;;;4897100;29;20467;-69
2021/10/10 13:58:30;;;;;;;24.03;21.43;;;13.90;99.90;;;;;;4897174;29;20463;-68
2021/10/10 14:00:57;;;;;;;14.23;10.30;;;13.90;99.90;;;;;;4897272;29;20578;-68
2021/10/10 14:03:24;;;;;;;11.50;10.40;;;13.90;99.90;;;;;;4897561;29;20464;-72
2021/10/10 14:05:53;;;;;;;10.13;9.10;;;13.90;99.90;;;;;;4898460;29;20471;-72
2021/10/10 14:08:21;;;;;;;11.10;10.20;;;13.90;99.90;;;;;;4898087;29;20463;-72
2021/10/10 14:10:49;;;;;;;10.67;9.17;;;13.90;99.90;;;;;;4898500;29;20496;-73
2021/10/10 14:13:18;;;;;;;9.23;8.37;;;14.00;99.90;;;;;;4898232;29;20941;-72
2021/10/10 14:15:46;;;;;;;8.60;7.97;;;14.00;99.90;;;;;;4898414;29;20499;-72
2021/10/10 14:18:14;;;;;;;8.83;8.10;;;14.00;99.90;;;;;;4898334;29;20471;-72
2021/10/10 14:20:41;;;;;;;8.27;7.67;;;14.00;99.90;;;;;;4898362;29;20546;-72
2021/10/10 14:23:09;;;;;;;8.60;7.80;;;14.00;99.90;;;;;;4898020;29;20479;-72
2021/10/10 14:25:36;;;;;;;8.80;8.10;;;14.00;99.90;;;;;;4897995;29;20838;-72
2021/10/10 14:28:03;;;;;;;8.80;7.50;;;14.00;99.90;;;;;;4898009;29;20466;-71
2021/10/10 14:30:31;;;;;;;8.43;7.60;;;13.90;99.90;;;;;;4897220;29;20863;-74
2021/10/10 14:32:58;;;;;;;8.40;7.67;;;13.90;99.90;;;;;;4897122;29;20857;-72
2021/10/10 14:35:24;;;;;;;7.10;6.50;;;13.90;99.90;;;;;;4896456;29;20939;-74
2021/10/10 14:37:51;;;;;;;6.83;6.37;;;14.00;99.90;;;;;;4896376;29;20475;-69
2021/10/10 14:40:19;;;;;;;9.70;7.70;;;14.00;99.90;;;;;;4897538;29;20471;-68
2021/10/10 14:42:49;;;;;;;8.07;7.30;;;13.90;99.90;;;;;;4897863;29;20467;-68
2021/10/10 14:45:17;;;;;;;8.63;7.90;;;13.90;99.90;;;;;;4897738;29;20473;-68
2021/10/10 14:48:03;;;;;;;7.83;6.93;;;13.90;99.90;;;;;;4898002;29;20559;-70
2021/10/10 14:50:30;;;;;;;7.63;6.87;;;13.90;99.90;;;;;;4898496;29;20509;-69
2021/10/10 14:52:57;;;;;;;8.13;7.33;;;13.90;99.90;;;;;;4901441;29;20475;-69
2021/10/10 14:55:24;;;;;;;8.10;7.30;;;13.90;99.90;;;;;;4900220;29;20538;-69
2021/10/10 14:57:53;;;;;;;7.20;6.70;;;13.80;99.90;;;;;;4900197;29;20467;-69
2021/10/10 15:00:21;;;;;;;7.77;7.17;;;13.80;99.90;;;;;;4899758;29;20468;-69
2021/10/10 15:02:50;;;;;;;9.27;8.43;;;13.80;99.90;;;;;;4899594;29;20887;-69
2021/10/10 15:05:17;;;;;;;12.03;10.83;;;13.80;99.90;;;;;;4899709;29;20526;-69
2021/10/10 15:07:45;;;;;;;12.90;11.57;;;13.80;99.90;;;;;;4899524;29;20830;-68
2021/10/10 15:10:11;;;;;;;10.87;9.77;;;13.70;99.90;;;;;;4914907;29;21031;-69
2021/10/10 15:12:39;;;;;;;12.10;10.87;;;13.70;99.90;;;;;;4918813;29;20478;-72
2021/10/10 15:15:08;;;;;;;8.20;7.10;;;13.70;99.90;;;;;;4919471;29;20501;-73
2021/10/10 15:17:35;;;;;;;9.63;8.80;;;13.70;99.90;;;;;;4921044;29;20470;-72
2021/10/10 15:20:04;;;;;;;10.13;8.50;;;13.60;99.90;;;;;;4921126;29;20466;-72
2021/10/10 15:22:31;;;;;;;13.13;11.80;;;13.60;99.90;;;;;;4920456;29;20490;-72
2021/10/10 15:24:59;;;;;;;12.77;11.50;;;13.50;99.90;;;;;;4919438;29;20475;-72
2021/10/10 15:27:25;;;;;;;17.97;16.07;;;13.50;99.90;;;;;;4918112;29;20545;-72
2021/10/10 15:29:52;;;;;;;9.67;8.67;;;13.40;99.90;;;;;;4917981;29;20523;-72
2021/10/10 15:32:19;;;;;;;7.87;7.27;;;13.40;99.90;;;;;;4918082;29;20490;-69
2021/10/10 15:34:46;;;;;;;8.57;7.77;;;13.30;99.90;;;;;;4917899;29;20475;-68
2021/10/10 15:37:14;;;;;;;8.27;7.50;;;13.30;99.90;;;;;;4917709;29;20470;-68
2021/10/10 15:39:41;;;;;;;8.97;8.23;;;13.20;99.90;;;;;;4917653;29;20963;-69
2021/10/10 15:42:09;;;;;;;9.57;8.67;;;13.20;99.90;;;;;;4917766;29;20833;-71
2021/10/10 15:44:36;;;;;;;7.60;7.10;;;13.10;99.90;;;;;;4918575;29;20467;-71
2021/10/10 15:47:03;;;;;;;11.30;8.33;;;13.00;99.90;;;;;;4917883;29;20943;-72
2021/10/10 15:49:30;;;;;;;7.55;6.95;;;13.00;99.90;;;;;;4899165;29;20487;-71
2021/10/10 15:51:58;;;;;;;7.25;6.80;;;12.90;99.90;;;;;;4898466;29;20231;-71
2021/10/10 15:54:26;;;;;;;8.38;7.70;;;12.80;99.90;;;;;;4898828;29;20577;-71
2021/10/10 15:56:52;;;;;;;8.87;7.97;;;12.80;99.90;;;;;;4898785;29;20586;-71
2021/10/10 15:59:19;;;;;;;7.07;6.50;;;12.70;99.90;;;;;;4899335;29;20519;-72
2021/10/10 16:01:46;;;;;;;5.35;5.05;;;12.60;99.90;;;;;;4897425;29;20547;-71
2021/10/10 16:04:13;;;;;;;6.70;6.20;;;12.60;99.90;;;;;;4898864;29;20215;-71
2021/10/10 16:06:40;;;;;;;7.25;6.00;;;12.50;99.90;;;;;;4897871;29;20891;-72
2021/10/10 16:09:06;;;;;;;8.27;6.03;;;12.40;99.90;;;;;;4898684;29;20211;-71
2021/10/10 16:11:35;;;;;;;7.43;6.78;;;12.40;99.90;;;;;;4898294;29;20286;-72
2021/10/10 16:14:01;;;;;;;6.60;5.93;;;12.30;99.90;;;;;;4898812;29;20581;-72
2021/10/10 16:16:28;;;;;;;21.05;19.08;;;12.20;99.90;;;;;;4898560;29;20575;-73
2021/10/10 16:18:54;;;;;;;11.07;9.98;;;12.20;99.90;;;;;;4898792;29;20706;-72
2021/10/10 16:21:21;;;;;;;10.40;9.50;;;12.10;99.90;;;;;;4897784;29;20235;-72
2021/10/10 16:23:48;;;;;;;12.23;10.95;;;12.00;99.90;;;;;;4898616;29;20210;-72
2021/10/10 16:26:14;;;;;;;11.55;10.40;;;12.00;99.90;;;;;;4898447;29;20349;-72
2021/10/10 16:28:42;;;;;;;7.28;6.68;;;11.90;99.90;;;;;;4898940;29;20244;-72
2021/10/10 16:31:09;;;;;;;8.98;6.60;;;11.80;99.90;;;;;;4898547;29;20239;-72
2021/10/10 16:33:41;;;;;;;8.02;7.25;;;11.70;99.90;;;;;;4898564;29;20314;-72
2021/10/10 16:36:10;;;;;;;8.30;7.60;;;11.60;99.90;;;;;;4897748;29;20653;-72
2021/10/10 16:38:40;;;;;;;7.32;6.70;;;11.50;99.90;;;;;;4897829;29;20257;-72
2021/10/10 16:41:21;;;;;;;8.70;7.97;;;11.40;99.90;;;;;;4898469;29;20231;-72
2021/10/10 16:43:49;;;;;;;8.32;7.55;;;11.30;99.90;;;;;;4898094;29;20715;-73